Time,TemperatureF,DewpointF,PressureIn,WindDirection,WindDirectionDegrees,WindSpeedMPH,WindSpeedGustMPH,Humidity,HourlyPrecipIn,Conditions,Clouds,dailyrainin,SoftwareType,DateUTC
2013-03-02 00:05:00,49.7,24.3,30.19,East,90,0.0,0.0,37,0.00,,,0.00,WUHU216HW,2013-03-02 08:05:00,
2013-03-02 00:10:00,49.7,24.3,30.19,East,90,0.0,0.0,37,0.00,,,0.00,WUHU216HW,2013-03-02 08:10:00,
2013-03-02 00:15:00,49.7,24.3,30.19,East,90,0.0,0.0,37,0.00,,,0.00,WUHU216HW,2013-03-02 08:15:00,
2013-03-02 00:20:00,49.9,24.4,30.18,East,90,0.0,0.0,37,0.00,,,0.00,WUHU216HW,2013-03-02 08:20:00,
2013-03-02 00:25:00,49.9,24.4,30.18,East,90,0.0,0.0,37,0.00,,,0.00,WUHU216HW,2013-03-02 08:25:00,
2013-03-02 00:30:00,49.9,24.4,30.18,East,90,0.0,0.0,37,0.00,,,0.00,WUHU216HW,2013-03-02 08:30:00,
2013-03-02 00:35:00,49.9,24.4,30.18,East,90,0.0,0.0,37,0.00,,,0.00,WUHU216HW,2013-03-02 08:35:00,
2013-03-02 00:40:00,49.9,24.4,30.18,East,90,0.0,0.0,37,0.00,,,0.00,WUHU216HW,2013-03-02 08:40:00,
2013-03-02 00:45:00,49.9,25.1,30.18,East,90,0.0,0.0,38,0.00,,,0.00,WUHU216HW,2013-03-02 08:45:00,
2013-03-02 00:50:00,50.0,24.6,30.18,East,90,0.0,0.0,37,0.00,,,0.00,WUHU216HW,2013-03-02 08:50:00,
2013-03-02 00:55:00,50.0,24.6,30.18,East,90,0.0,0.0,37,0.00,,,0.00,WUHU216HW,2013-03-02 08:55:00,
2013-03-02 01:01:00,50.0,24.6,30.18,East,90,0.0,0.0,37,0.00,,,0.00,WUHU216HW,2013-03-02 09:01:00,
2013-03-02 01:06:00,50.0,24.6,30.17,East,90,0.4,0.4,37,0.00,,,0.00,WUHU216HW,2013-03-02 09:06:00,
2013-03-02 01:11:00,50.0,24.6,30.17,East,90,0.2,0.4,37,0.00,,,0.00,WUHU216HW,2013-03-02 09:11:00,
2013-03-02 01:16:00,50.0,24.0,30.18,East,90,0.0,0.4,36,0.00,,,0.00,WUHU216HW,2013-03-02 09:16:00,
2013-03-02 01:21:00,49.9,23.8,30.17,East,90,0.0,0.0,36,0.00,,,0.00,WUHU216HW,2013-03-02 09:21:00,
2013-03-02 01:26:00,50.0,23.2,30.17,East,90,0.3,0.9,35,0.00,,,0.00,WUHU216HW,2013-03-02 09:26:00,
2013-03-02 01:31:00,50.0,23.2,30.18,East,90,0.0,0.9,35,0.00,,,0.00,WUHU216HW,2013-03-02 09:31:00,
2013-03-02 01:36:00,49.9,23.8,30.17,East,90,0.0,0.0,36,0.00,,,0.00,WUHU216HW,2013-03-02 09:36:00,
2013-03-02 01:41:00,49.9,21.7,30.17,East,90,0.5,0.9,33,0.00,,,0.00,WUHU216HW,2013-03-02 09:41:00,
2013-03-02 01:46:00,49.9,22.4,30.17,East,90,0.0,0.9,34,0.00,,,0.00,WUHU216HW,2013-03-02 09:46:00,
2013-03-02 01:51:00,49.9,22.4,30.17,East,90,0.7,0.7,34,0.00,,,0.00,WUHU216HW,2013-03-02 09:51:00,
2013-03-02 01:56:00,49.9,22.4,30.17,East,90,0.7,0.7,34,0.00,,,0.00,WUHU216HW,2013-03-02 09:56:00,
2013-03-02 02:01:00,49.9,22.4,30.17,East,90,0.5,0.7,34,0.00,,,0.00,WUHU216HW,2013-03-02 10:01:00,
2013-03-02 02:07:00,49.9,22.4,30.16,East,90,0.3,0.7,34,0.00,,,0.00,WUHU216HW,2013-03-02 10:07:00,
2013-03-02 02:12:00,49.9,21.7,30.15,East,90,0.4,1.1,33,0.00,,,0.00,WUHU216HW,2013-03-02 10:12:00,
2013-03-02 02:17:00,49.9,21.7,30.15,East,90,0.0,1.1,33,0.00,,,0.00,WUHU216HW,2013-03-02 10:17:00,
2013-03-02 02:22:00,49.9,21.7,30.15,East,90,0.0,0.2,33,0.00,,,0.00,WUHU216HW,2013-03-02 10:22:00,
2013-03-02 02:27:00,49.9,21.7,30.14,East,90,0.0,0.0,33,0.00,,,0.00,WUHU216HW,2013-03-02 10:27:00,
2013-03-02 02:32:00,49.9,21.1,30.14,East,90,0.0,0.0,32,0.00,,,0.00,WUHU216HW,2013-03-02 10:32:00,
2013-03-02 02:37:00,49.9,21.1,30.14,East,90,0.0,0.7,32,0.00,,,0.00,WUHU216HW,2013-03-02 10:37:00,
2013-03-02 02:42:00,49.7,20.9,30.14,East,90,0.0,0.7,32,0.00,,,0.00,WUHU216HW,2013-03-02 10:42:00,
2013-03-02 02:47:00,49.7,20.9,30.14,East,90,0.0,0.0,32,0.00,,,0.00,WUHU216HW,2013-03-02 10:47:00,
2013-03-02 02:53:00,49.9,21.1,30.14,SW,225,1.8,1.8,32,0.00,,,0.00,WUHU216HW,2013-03-02 10:53:00,
2013-03-02 02:58:00,49.9,13.2,30.14,WSW,248,1.6,1.8,23,0.00,,,0.00,WUHU216HW,2013-03-02 10:58:00,
2013-03-02 03:03:00,49.9,17.8,30.14,SW,225,1.1,1.8,28,0.00,,,0.00,WUHU216HW,2013-03-02 11:03:00,
2013-03-02 03:08:00,49.9,18.7,30.13,SW,225,0.4,1.8,29,0.00,,,0.00,WUHU216HW,2013-03-02 11:08:00,
2013-03-02 03:13:00,49.9,19.6,30.13,SW,225,0.0,0.7,30,0.00,,,0.00,WUHU216HW,2013-03-02 11:13:00,
2013-03-02 03:18:00,49.9,19.6,30.12,East,90,1.3,1.6,30,0.00,,,0.00,WUHU216HW,2013-03-02 11:18:00,
2013-03-02 03:24:00,49.9,19.6,30.12,ESE,113,1.6,2.2,30,0.00,,,0.00,WUHU216HW,2013-03-02 11:24:00,
2013-03-02 03:29:00,49.9,19.6,30.12,ESE,113,0.0,2.2,30,0.00,,,0.00,WUHU216HW,2013-03-02 11:29:00,
2013-03-02 03:34:00,49.9,20.4,30.12,ESE,113,0.0,1.6,31,0.00,,,0.00,WUHU216HW,2013-03-02 11:34:00,
2013-03-02 03:39:00,49.9,20.4,30.12,ESE,113,0.0,0.0,31,0.00,,,0.00,WUHU216HW,2013-03-02 11:39:00,
2013-03-02 03:44:00,49.7,16.7,30.12,SE,133,1.0,1.3,27,0.00,,,0.00,WUHU216HW,2013-03-02 11:44:00,
2013-03-02 03:49:00,49.5,19.4,30.12,West,270,0.0,1.3,30,0.00,,,0.00,WUHU216HW,2013-03-02 11:49:00,
2013-03-02 03:54:00,49.5,20.1,30.12,SSE,158,0.6,1.1,31,0.00,,,0.00,WUHU216HW,2013-03-02 11:54:00,
2013-03-02 03:59:00,49.5,19.4,30.12,SSE,158,0.0,1.1,30,0.00,,,0.00,WUHU216HW,2013-03-02 11:59:00,
2013-03-02 04:04:00,49.3,18.3,30.12,South,180,0.5,1.1,29,0.00,,,0.00,WUHU216HW,2013-03-02 12:04:00,
2013-03-02 04:09:00,49.1,19.1,30.12,South,180,0.4,1.1,30,0.00,,,0.00,WUHU216HW,2013-03-02 12:09:00,
2013-03-02 04:14:00,49.1,19.1,30.12,South,180,0.0,0.4,30,0.00,,,0.00,WUHU216HW,2013-03-02 12:14:00,
2013-03-02 04:19:00,49.1,19.1,30.11,South,180,0.0,0.0,30,0.00,,,0.00,WUHU216HW,2013-03-02 12:19:00,
2013-03-02 04:25:00,49.1,19.1,30.11,South,180,0.5,0.9,30,0.00,,,0.00,WUHU216HW,2013-03-02 12:25:00,
2013-03-02 04:30:00,49.1,19.7,30.11,South,180,0.3,0.9,31,0.00,,,0.00,WUHU216HW,2013-03-02 12:30:00,
2013-03-02 04:35:00,49.1,19.1,30.11,South,180,0.0,0.7,30,0.00,,,0.00,WUHU216HW,2013-03-02 12:35:00,
2013-03-02 04:40:00,49.1,19.1,30.11,South,180,0.0,0.0,30,0.00,,,0.00,WUHU216HW,2013-03-02 12:40:00,
2013-03-02 04:45:00,49.1,18.2,30.11,South,180,0.3,0.4,29,0.00,,,0.00,WUHU216HW,2013-03-02 12:45:00,
2013-03-02 04:50:00,49.0,18.0,30.11,South,180,0.4,0.4,29,0.00,,,0.00,WUHU216HW,2013-03-02 12:50:00,
2013-03-02 04:55:00,49.0,18.9,30.11,South,180,0.0,0.4,30,0.00,,,0.00,WUHU216HW,2013-03-02 12:55:00,
2013-03-02 05:00:00,49.0,18.9,30.11,SSE,158,0.4,0.9,30,0.00,,,0.00,WUHU216HW,2013-03-02 13:00:00,
2013-03-02 05:05:00,49.0,18.0,30.11,SSE,158,0.0,0.9,29,0.00,,,0.00,WUHU216HW,2013-03-02 13:05:00,
2013-03-02 05:10:00,49.0,18.0,30.11,SSE,158,0.6,0.9,29,0.00,,,0.00,WUHU216HW,2013-03-02 13:10:00,
2013-03-02 05:15:00,49.0,18.0,30.11,SSE,158,0.0,0.9,29,0.00,,,0.00,WUHU216HW,2013-03-02 13:15:00,
2013-03-02 05:20:00,49.0,18.0,30.11,SSE,158,0.0,0.4,29,0.00,,,0.00,WUHU216HW,2013-03-02 13:20:00,
2013-03-02 05:25:00,49.0,18.0,30.10,SSE,158,0.0,0.0,29,0.00,,,0.00,WUHU216HW,2013-03-02 13:25:00,
2013-03-02 05:31:00,48.8,17.8,30.10,SSE,158,0.0,0.4,29,0.00,,,0.00,WUHU216HW,2013-03-02 13:31:00,
2013-03-02 05:36:00,48.8,10.5,30.11,SW,225,1.1,1.3,21,0.00,,,0.00,WUHU216HW,2013-03-02 13:36:00,
2013-03-02 05:41:00,48.6,10.3,30.11,WSW,248,0.9,1.3,21,0.00,,,0.00,WUHU216HW,2013-03-02 13:41:00,
2013-03-02 05:46:00,48.4,12.0,30.11,WSW,248,0.2,1.1,23,0.00,,,0.00,WUHU216HW,2013-03-02 13:46:00,
2013-03-02 05:51:00,48.4,12.0,30.11,WSW,248,0.9,0.9,23,0.00,,,0.00,WUHU216HW,2013-03-02 13:51:00,
2013-03-02 05:56:00,48.6,12.2,30.11,WSW,248,0.2,0.9,23,0.00,,,0.00,WUHU216HW,2013-03-02 13:56:00,
2013-03-02 06:01:00,48.6,12.2,30.11,WSW,248,0.0,0.9,23,0.00,,,0.00,WUHU216HW,2013-03-02 14:01:00,
2013-03-02 06:06:00,48.6,12.2,30.10,WSW,248,0.4,0.4,23,0.00,,,0.00,WUHU216HW,2013-03-02 14:06:00,
2013-03-02 06:11:00,48.6,12.2,30.10,WSW,248,0.0,0.7,23,0.00,,,0.00,WUHU216HW,2013-03-02 14:11:00,
2013-03-02 06:16:00,48.6,12.2,30.10,East,90,1.0,1.3,23,0.00,,,0.00,WUHU216HW,2013-03-02 14:16:00,
2013-03-02 06:21:00,48.6,11.2,30.10,East,90,0.9,1.3,22,0.00,,,0.00,WUHU216HW,2013-03-02 14:21:00,
2013-03-02 06:26:00,48.6,11.2,30.10,East,90,0.7,1.6,22,0.00,,,0.00,WUHU216HW,2013-03-02 14:26:00,
2013-03-02 06:31:00,48.6,11.2,30.10,East,90,0.0,1.6,22,0.00,,,0.00,WUHU216HW,2013-03-02 14:31:00,
2013-03-02 06:36:00,48.6,11.2,30.10,East,90,0.0,1.1,22,0.00,,,0.00,WUHU216HW,2013-03-02 14:36:00,
2013-03-02 06:41:00,48.6,4.9,30.10,WNW,293,1.0,1.8,17,0.00,,,0.00,WUHU216HW,2013-03-02 14:41:00,
2013-03-02 06:46:00,48.4,6.2,30.10,West,270,0.7,1.8,18,0.00,,,0.00,WUHU216HW,2013-03-02 14:46:00,
2013-03-02 06:52:00,48.4,9.2,30.10,West,270,0.0,1.3,20,0.00,,,0.00,WUHU216HW,2013-03-02 14:52:00,
2013-03-02 06:57:00,48.4,9.2,30.09,West,270,0.0,0.9,20,0.00,,,0.00,WUHU216HW,2013-03-02 14:57:00,
2013-03-02 07:02:00,48.6,9.4,30.09,West,270,0.0,0.0,20,0.00,,,0.00,WUHU216HW,2013-03-02 15:02:00,
2013-03-02 07:07:00,48.4,9.2,30.09,South,171,1.4,1.8,20,0.00,,,0.00,WUHU216HW,2013-03-02 15:07:00,
2013-03-02 07:12:00,48.6,9.4,30.10,SSW,203,1.1,2.0,20,0.00,,,0.00,WUHU216HW,2013-03-02 15:12:00,
2013-03-02 07:17:00,48.6,3.4,30.10,SSW,203,0.6,2.0,16,0.00,,,0.00,WUHU216HW,2013-03-02 15:17:00,
2013-03-02 07:22:00,48.6,4.9,30.09,SSW,203,0.5,1.1,17,0.00,,,0.00,WUHU216HW,2013-03-02 15:22:00,
2013-03-02 07:27:00,48.6,3.4,30.09,SSW,203,0.0,1.1,16,0.00,,,0.00,WUHU216HW,2013-03-02 15:27:00,
2013-03-02 07:32:00,48.6,3.4,30.09,SSW,203,0.4,0.7,16,0.00,,,0.00,WUHU216HW,2013-03-02 15:32:00,
2013-03-02 07:37:00,49.0,2.2,30.09,East,92,1.0,1.3,15,0.00,,,0.00,WUHU216HW,2013-03-02 15:37:00,
2013-03-02 07:42:00,49.1,2.3,30.09,East,90,0.0,1.3,15,0.00,,,0.00,WUHU216HW,2013-03-02 15:42:00,
2013-03-02 07:48:00,49.1,-2.2,30.09,East,90,0.0,0.4,12,0.00,,,0.00,WUHU216HW,2013-03-02 15:48:00,
2013-03-02 07:53:00,49.3,-5.0,30.09,East,90,0.6,1.1,7,0.00,,,0.00,WUHU216HW,2013-03-02 15:53:00,
2013-03-02 07:58:00,49.3,-3.5,30.09,East,90,0.9,1.1,11,0.00,,,0.00,WUHU216HW,2013-03-02 15:58:00,
2013-03-02 08:03:00,49.5,-4.8,30.10,WSW,248,1.3,1.3,7,0.00,,,0.00,WUHU216HW,2013-03-02 16:03:00,
2013-03-02 08:08:00,49.7,-4.8,30.10,West,270,2.2,2.5,1,0.00,,,0.00,WUHU216HW,2013-03-02 16:08:00,
2013-03-02 08:13:00,49.7,-4.8,30.10,SW,225,1.1,2.5,6,0.00,,,0.00,WUHU216HW,2013-03-02 16:13:00,
2013-03-02 08:18:00,49.9,-4.6,30.10,WSW,248,0.7,1.8,7,0.00,,,0.00,WUHU216HW,2013-03-02 16:18:00,
2013-03-02 08:23:00,50.0,-4.5,30.10,SW,225,1.1,1.8,8,0.00,,,0.00,WUHU216HW,2013-03-02 16:23:00,
2013-03-02 08:28:00,50.0,-4.5,30.10,WSW,248,1.8,2.5,6,0.00,,,0.00,WUHU216HW,2013-03-02 16:28:00,
2013-03-02 08:33:00,50.2,-4.3,30.10,WSW,248,2.7,3.1,3,0.00,,,0.00,WUHU216HW,2013-03-02 16:33:00,
2013-03-02 08:38:00,50.6,-4.0,30.10,WSW,248,3.1,3.4,10,0.00,,,0.00,WUHU216HW,2013-03-02 16:38:00,
2013-03-02 08:43:00,50.6,-2.5,30.10,WSW,248,2.0,3.4,11,0.00,,,0.00,WUHU216HW,2013-03-02 16:43:00,
2013-03-02 08:49:00,50.8,3.6,30.10,WSW,248,2.5,3.4,15,0.00,,,0.00,WUHU216HW,2013-03-02 16:49:00,
2013-03-02 08:54:00,50.9,8.3,30.10,WSW,241,2.2,2.9,18,0.00,,,0.00,WUHU216HW,2013-03-02 16:54:00,
2013-03-02 08:59:00,50.9,11.3,30.10,WSW,248,1.8,2.9,20,0.00,,,0.00,WUHU216HW,2013-03-02 16:59:00,
2013-03-02 09:04:00,51.1,18.9,30.10,WSW,248,2.7,2.7,28,0.00,,,0.00,WUHU216HW,2013-03-02 17:04:00,
2013-03-02 09:09:00,51.3,24.4,30.10,WSW,246,2.2,3.1,35,0.00,,,0.00,WUHU216HW,2013-03-02 17:09:00,
2013-03-02 09:14:00,51.5,26.6,30.10,West,270,2.5,3.1,38,0.00,,,0.00,WUHU216HW,2013-03-02 17:14:00,
2013-03-02 09:19:00,51.5,29.1,30.10,WSW,239,1.4,3.4,42,0.00,,,0.00,WUHU216HW,2013-03-02 17:19:00,
2013-03-02 09:24:00,51.8,26.9,30.10,WSW,248,1.8,3.4,38,0.00,,,0.00,WUHU216HW,2013-03-02 17:24:00,
2013-03-02 09:29:00,51.8,29.3,30.10,SW,225,1.8,1.8,42,0.00,,,0.00,WUHU216HW,2013-03-02 17:29:00,
2013-03-02 09:34:00,52.0,34.9,30.10,West,262,2.1,2.5,52,0.00,,,0.00,WUHU216HW,2013-03-02 17:34:00,
2013-03-02 09:39:00,52.2,33.6,30.10,SW,222,1.7,2.7,49,0.00,,,0.00,WUHU216HW,2013-03-02 17:39:00,
2013-03-02 09:44:00,52.2,32.5,30.10,SW,218,1.4,2.7,47,0.00,,,0.00,WUHU216HW,2013-03-02 17:44:00,
2013-03-02 09:49:00,52.6,35.4,30.10,SSW,212,1.3,2.0,52,0.00,,,0.00,WUHU216HW,2013-03-02 17:49:00,
2013-03-02 09:55:00,52.9,34.8,30.10,SSW,205,1.4,2.7,50,0.00,,,0.00,WUHU216HW,2013-03-02 17:55:00,
2013-03-02 10:00:00,53.1,34.4,30.10,SSE,162,1.9,2.9,49,0.00,,,0.00,WUHU216HW,2013-03-02 18:00:00,
2013-03-02 10:05:00,53.3,35.7,30.09,SSE,165,1.4,2.9,51,0.00,,,0.00,WUHU216HW,2013-03-02 18:05:00,
2013-03-02 10:10:00,53.6,36.4,30.10,SE,135,1.3,2.5,52,0.00,,,0.00,WUHU216HW,2013-03-02 18:10:00,
2013-03-02 10:15:00,53.6,36.9,30.09,SSE,147,0.5,2.5,53,0.00,,,0.00,WUHU216HW,2013-03-02 18:15:00,
2013-03-02 10:20:00,53.6,36.9,30.09,SE,137,1.1,3.4,53,0.00,,,0.00,WUHU216HW,2013-03-02 18:20:00,
2013-03-02 10:25:00,53.8,37.0,30.09,South,180,2.5,3.4,53,0.00,,,0.00,WUHU216HW,2013-03-02 18:25:00,
2013-03-02 10:30:00,54.0,37.6,30.09,South,190,3.1,4.0,54,0.00,,,0.00,WUHU216HW,2013-03-02 18:30:00,
2013-03-02 10:35:00,54.0,38.2,30.09,SSE,168,1.2,4.0,55,0.00,,,0.00,WUHU216HW,2013-03-02 18:35:00,
2013-03-02 10:40:00,54.2,37.8,30.09,SSE,158,2.6,3.1,54,0.00,,,0.00,WUHU216HW,2013-03-02 18:40:00,
2013-03-02 10:45:00,54.2,38.3,30.09,South,180,4.0,4.7,55,0.00,,,0.00,WUHU216HW,2013-03-02 18:45:00,
2013-03-02 10:50:00,54.4,38.4,30.09,South,180,4.0,4.7,55,0.00,,,0.00,WUHU216HW,2013-03-02 18:50:00,
2013-03-02 10:56:00,54.4,38.4,30.09,SSE,158,1.3,4.0,55,0.00,,,0.00,WUHU216HW,2013-03-02 18:56:00,
2013-03-02 11:01:00,54.4,38.9,30.09,SSE,152,1.5,4.0,56,0.00,,,0.00,WUHU216HW,2013-03-02 19:01:00,
2013-03-02 11:06:00,54.4,38.9,30.09,SSE,158,3.8,4.0,56,0.00,,,0.00,WUHU216HW,2013-03-02 19:06:00,
2013-03-02 11:11:00,54.2,39.3,30.09,SSE,157,2.0,4.3,57,0.00,,,0.00,WUHU216HW,2013-03-02 19:11:00,
2013-03-02 11:16:00,54.2,39.7,30.09,SSW,203,3.4,4.3,58,0.00,,,0.00,WUHU216HW,2013-03-02 19:16:00,
2013-03-02 11:21:00,54.4,39.9,30.09,SSE,158,3.8,4.7,58,0.00,,,0.00,WUHU216HW,2013-03-02 19:21:00,
2013-03-02 11:26:00,54.5,39.5,30.09,SE,140,2.2,4.7,57,0.00,,,0.00,WUHU216HW,2013-03-02 19:26:00,
2013-03-02 11:31:00,54.7,39.2,30.09,SSE,158,3.4,4.7,56,0.00,,,0.00,WUHU216HW,2013-03-02 19:31:00,
2013-03-02 11:36:00,54.5,41.0,30.09,SE,141,3.7,4.7,60,0.00,,,0.00,WUHU216HW,2013-03-02 19:36:00,
2013-03-02 11:41:00,54.5,40.5,30.09,SSW,203,2.0,4.7,59,0.00,,,0.00,WUHU216HW,2013-03-02 19:41:00,
2013-03-02 11:46:00,54.5,41.3,30.09,SE,136,1.6,4.0,61,0.00,,,0.00,WUHU216HW,2013-03-02 19:46:00,
2013-03-02 11:51:00,54.4,40.8,30.08,South,180,3.1,4.0,60,0.00,,,0.00,WUHU216HW,2013-03-02 19:51:00,
2013-03-02 11:56:00,54.4,40.8,30.09,SSW,194,2.7,4.0,60,0.00,,,0.00,WUHU216HW,2013-03-02 19:56:00,
2013-03-02 12:01:00,54.4,40.3,30.08,SE,135,2.2,4.0,59,0.00,,,0.00,WUHU216HW,2013-03-02 20:01:00,
2013-03-02 12:06:00,54.4,42.0,30.08,SW,225,2.0,2.5,63,0.00,,,0.00,WUHU216HW,2013-03-02 20:06:00,
2013-03-02 12:11:00,54.2,41.4,30.09,SSW,203,2.5,2.7,62,0.00,,,0.00,WUHU216HW,2013-03-02 20:11:00,
2013-03-02 12:16:00,54.2,40.6,30.08,SSE,158,1.3,2.7,60,0.00,,,0.00,WUHU216HW,2013-03-02 20:16:00,
2013-03-02 12:21:00,53.8,41.5,30.08,WSW,242,2.3,2.7,63,0.00,,,0.00,WUHU216HW,2013-03-02 20:21:00,
2013-03-02 12:26:00,53.6,41.3,30.08,WSW,248,1.1,2.5,63,0.00,,,0.00,WUHU216HW,2013-03-02 20:26:00,
2013-03-02 12:31:00,53.6,41.8,30.09,West,270,1.3,2.5,64,0.00,,,0.00,WUHU216HW,2013-03-02 20:31:00,
2013-03-02 12:37:00,53.5,42.8,30.09,WSW,243,2.1,2.9,67,0.00,,,0.00,WUHU216HW,2013-03-02 20:37:00,
2013-03-02 12:42:00,53.5,41.6,30.08,SW,229,1.5,3.1,64,0.00,,,0.00,WUHU216HW,2013-03-02 20:42:00,
2013-03-02 12:47:00,53.3,41.8,30.08,WSW,248,2.5,3.1,65,0.00,,,0.00,WUHU216HW,2013-03-02 20:47:00,
2013-03-02 12:52:00,53.3,42.2,30.08,WSW,248,2.5,2.5,66,0.00,,,0.00,WUHU216HW,2013-03-02 20:52:00,
2013-03-02 12:57:00,53.3,42.2,30.08,WSW,248,3.4,3.8,66,0.00,,,0.00,WUHU216HW,2013-03-02 20:57:00,
2013-03-02 13:02:00,53.1,42.0,30.08,WSW,248,3.4,3.8,66,0.00,,,0.00,WUHU216HW,2013-03-02 21:02:00,
2013-03-02 13:07:00,52.9,42.2,30.08,West,262,5.3,7.8,67,0.00,,,0.00,WUHU216HW,2013-03-02 21:07:00,
2013-03-02 13:12:00,52.7,41.3,30.08,WSW,252,4.8,7.8,65,0.00,,,0.00,WUHU216HW,2013-03-02 21:12:00,
2013-03-02 13:17:00,52.6,42.0,30.08,WSW,255,4.7,6.0,67,0.00,,,0.00,WUHU216HW,2013-03-02 21:17:00,
2013-03-02 13:22:00,52.4,41.8,30.08,WSW,253,3.2,5.4,67,0.00,,,0.00,WUHU216HW,2013-03-02 21:22:00,
2013-03-02 13:27:00,52.2,41.6,30.08,West,268,4.0,5.1,67,0.00,,,0.00,WUHU216HW,2013-03-02 21:27:00,
2013-03-02 13:32:00,52.0,40.1,30.08,West,270,4.5,5.4,64,0.00,,,0.00,WUHU216HW,2013-03-02 21:32:00,
2013-03-02 13:37:00,51.8,39.2,30.08,WSW,258,2.7,5.4,62,0.00,,,0.00,WUHU216HW,2013-03-02 21:37:00,
2013-03-02 13:43:00,51.8,38.8,30.08,West,270,4.0,5.4,61,0.00,,,0.00,WUHU216HW,2013-03-02 21:43:00,
2013-03-02 13:48:00,51.8,38.8,30.08,WSW,248,1.7,4.0,61,0.00,,,0.00,WUHU216HW,2013-03-02 21:48:00,
2013-03-02 13:53:00,52.0,38.5,30.08,WSW,238,2.2,4.0,60,0.00,,,0.00,WUHU216HW,2013-03-02 21:53:00,
2013-03-02 13:58:00,52.2,38.3,30.08,SW,225,2.5,3.4,59,0.00,,,0.00,WUHU216HW,2013-03-02 21:58:00,
2013-03-02 14:03:00,52.4,39.3,30.08,WSW,237,2.4,4.0,61,0.00,,,0.00,WUHU216HW,2013-03-02 22:03:00,
2013-03-02 14:08:00,52.6,39.9,30.08,WSW,248,2.5,4.0,62,0.00,,,0.00,WUHU216HW,2013-03-02 22:08:00,
2013-03-02 14:13:00,52.9,40.2,30.08,SW,231,2.2,3.8,62,0.00,,,0.00,WUHU216HW,2013-03-02 22:13:00,
2013-03-02 14:18:00,53.3,41.0,30.08,SSW,203,1.1,3.8,63,0.00,,,0.00,WUHU216HW,2013-03-02 22:18:00,
2013-03-02 14:23:00,53.6,44.1,30.08,SSW,203,6.7,7.6,70,0.00,,,0.00,WUHU216HW,2013-03-02 22:23:00,
2013-03-02 14:28:00,53.8,45.4,30.08,WSW,240,6.0,7.6,73,0.00,,,0.00,WUHU216HW,2013-03-02 22:28:00,
2013-03-02 14:33:00,54.0,45.2,30.08,WSW,258,4.3,7.4,72,0.00,,,0.00,WUHU216HW,2013-03-02 22:33:00,
2013-03-02 14:38:00,54.0,44.8,30.08,West,270,4.0,6.0,71,0.00,,,0.00,WUHU216HW,2013-03-02 22:38:00,
2013-03-02 14:43:00,54.0,45.2,30.08,West,259,3.8,5.6,72,0.00,,,0.00,WUHU216HW,2013-03-02 22:43:00,
2013-03-02 14:48:00,54.0,45.2,30.08,WSW,248,4.9,5.6,72,0.00,,,0.00,WUHU216HW,2013-03-02 22:48:00,
2013-03-02 14:53:00,54.2,45.0,30.08,SW,221,4.0,4.9,71,0.00,,,0.00,WUHU216HW,2013-03-02 22:53:00,
2013-03-02 14:59:00,54.4,45.2,30.08,SW,229,4.0,4.9,71,0.00,,,0.00,WUHU216HW,2013-03-02 22:59:00,
2013-03-02 15:04:00,54.4,45.2,30.08,SSW,203,1.3,4.9,71,0.00,,,0.00,WUHU216HW,2013-03-02 23:04:00,
2013-03-02 15:09:00,54.7,45.6,30.08,WSW,248,1.3,4.0,71,0.00,,,0.00,WUHU216HW,2013-03-02 23:09:00,
2013-03-02 15:14:00,54.9,45.7,30.08,SW,225,1.6,3.4,71,0.00,,,0.00,WUHU216HW,2013-03-02 23:14:00,
2013-03-02 15:19:00,54.9,45.7,30.08,SW,225,0.4,2.7,71,0.00,,,0.00,WUHU216HW,2013-03-02 23:19:00,
2013-03-02 15:24:00,54.9,46.1,30.08,WSW,247,1.8,3.1,72,0.00,,,0.00,WUHU216HW,2013-03-02 23:24:00,
2013-03-02 15:29:00,54.9,46.5,30.08,WSW,248,2.5,3.1,73,0.00,,,0.00,WUHU216HW,2013-03-02 23:29:00,
2013-03-02 15:34:00,54.7,46.3,30.08,West,267,2.4,3.1,73,0.00,,,0.00,WUHU216HW,2013-03-02 23:34:00,
2013-03-02 15:39:00,54.7,46.3,30.08,West,274,2.2,3.1,73,0.00,,,0.00,WUHU216HW,2013-03-02 23:39:00,
2013-03-02 15:44:00,54.7,46.3,30.08,WSW,248,3.6,3.6,73,0.00,,,0.00,WUHU216HW,2013-03-02 23:44:00,
2013-03-02 15:49:00,54.7,46.3,30.08,SSW,207,1.6,3.6,73,0.00,,,0.00,WUHU216HW,2013-03-02 23:49:00,
2013-03-02 15:54:00,54.5,46.1,30.08,WSW,248,3.4,3.6,73,0.00,,,0.00,WUHU216HW,2013-03-02 23:54:00,
2013-03-02 15:59:00,54.5,46.1,30.08,West,270,2.5,4.0,73,0.00,,,0.00,WUHU216HW,2013-03-02 23:59:00,
2013-03-02 16:04:00,54.5,46.1,30.08,WSW,242,1.4,4.0,73,0.00,,,0.00,WUHU216HW,2013-03-03 00:04:00,
2013-03-02 16:10:00,54.5,46.1,30.07,South,185,2.3,3.4,73,0.00,,,0.00,WUHU216HW,2013-03-03 00:10:00,
2013-03-02 16:15:00,54.5,46.1,30.07,SSW,212,1.5,2.9,73,0.00,,,0.00,WUHU216HW,2013-03-03 00:15:00,
2013-03-02 16:20:00,54.5,46.1,30.07,SW,225,1.3,2.5,73,0.00,,,0.00,WUHU216HW,2013-03-03 00:20:00,
2013-03-02 16:25:00,54.5,45.7,30.07,SSW,203,1.1,1.6,72,0.00,,,0.00,WUHU216HW,2013-03-03 00:25:00,
2013-03-02 16:30:00,54.5,45.7,30.07,SSW,203,2.5,2.9,72,0.00,,,0.00,WUHU216HW,2013-03-03 00:30:00,
2013-03-02 16:35:00,54.4,45.9,30.07,SSW,203,2.2,2.9,73,0.00,,,0.00,WUHU216HW,2013-03-03 00:35:00,
2013-03-02 16:40:00,54.4,45.9,30.07,SSW,203,1.1,2.5,73,0.00,,,0.00,WUHU216HW,2013-03-03 00:40:00,
2013-03-02 16:45:00,54.4,45.6,30.07,South,187,1.2,2.2,72,0.00,,,0.00,WUHU216HW,2013-03-03 00:45:00,
2013-03-02 16:50:00,54.4,45.6,30.07,SW,219,1.1,2.0,72,0.00,,,0.00,WUHU216HW,2013-03-03 00:50:00,
2013-03-02 16:55:00,54.2,45.7,30.07,WSW,245,1.2,1.8,73,0.00,,,0.00,WUHU216HW,2013-03-03 00:55:00,
2013-03-02 17:00:00,54.0,45.2,30.07,South,184,0.8,2.0,72,0.00,,,0.00,WUHU216HW,2013-03-03 01:00:00,
2013-03-02 17:05:00,54.0,45.6,30.07,WSW,247,1.2,2.0,73,0.00,,,0.00,WUHU216HW,2013-03-03 01:05:00,
2013-03-02 17:10:00,53.8,45.4,30.07,SW,225,2.0,2.0,73,0.00,,,0.00,WUHU216HW,2013-03-03 01:10:00,
2013-03-02 17:16:00,53.6,44.8,30.07,SW,230,0.8,2.0,72,0.00,,,0.00,WUHU216HW,2013-03-03 01:16:00,
2013-03-02 17:21:00,53.6,44.8,30.07,SSW,203,0.0,2.0,72,0.00,,,0.00,WUHU216HW,2013-03-03 01:21:00,
2013-03-02 17:26:00,53.6,44.8,30.07,SSW,203,1.3,1.3,72,0.00,,,0.00,WUHU216HW,2013-03-03 01:26:00,
2013-03-02 17:31:00,53.6,44.8,30.07,WSW,248,0.9,1.6,72,0.00,,,0.00,WUHU216HW,2013-03-03 01:31:00,
2013-03-02 17:36:00,53.3,44.1,30.07,WSW,248,0.0,1.6,71,0.00,,,0.00,WUHU216HW,2013-03-03 01:36:00,
2013-03-02 17:41:00,53.1,44.0,30.07,West,270,0.2,0.7,71,0.00,,,0.00,WUHU216HW,2013-03-03 01:41:00,
2013-03-02 17:46:00,52.9,43.5,30.07,South,179,0.5,0.7,70,0.00,,,0.00,WUHU216HW,2013-03-03 01:46:00,
2013-03-02 17:51:00,52.4,42.1,30.07,West,270,5.6,5.6,68,0.00,,,0.00,WUHU216HW,2013-03-03 01:51:00,
2013-03-02 17:56:00,52.2,42.9,30.07,SW,225,3.4,6.3,70,0.00,,,0.00,WUHU216HW,2013-03-03 01:56:00,
2013-03-02 18:01:00,52.0,42.7,30.07,SW,225,4.5,6.3,70,0.00,,,0.00,WUHU216HW,2013-03-03 02:01:00,
2013-03-02 18:06:00,51.8,41.7,30.07,SW,231,2.4,4.5,68,0.00,,,0.00,WUHU216HW,2013-03-03 02:06:00,
2013-03-02 18:11:00,51.5,41.3,30.07,WSW,242,2.6,4.0,68,0.00,,,0.00,WUHU216HW,2013-03-03 02:11:00,
2013-03-02 18:16:00,51.5,40.5,30.07,West,276,3.5,5.1,66,0.00,,,0.00,WUHU216HW,2013-03-03 02:16:00,
2013-03-02 18:21:00,51.3,39.1,30.07,West,265,3.3,6.0,63,0.00,,,0.00,WUHU216HW,2013-03-03 02:21:00,
2013-03-02 18:26:00,50.9,38.0,30.07,SW,223,2.5,6.0,61,0.01,,,0.01,WUHU216HW,2013-03-03 02:26:00,
2013-03-02 18:31:00,50.8,35.6,30.07,WSW,248,2.0,4.0,56,0.01,,,0.01,WUHU216HW,2013-03-03 02:31:00,
2013-03-02 18:36:00,50.6,35.8,30.07,WSW,238,1.5,2.7,57,0.01,,,0.01,WUHU216HW,2013-03-03 02:36:00,
2013-03-02 18:42:00,50.4,36.2,30.07,West,270,1.6,2.2,58,0.01,,,0.01,WUHU216HW,2013-03-03 02:42:00,
2013-03-02 18:47:00,50.2,36.0,30.07,WSW,248,0.8,1.8,58,0.01,,,0.01,WUHU216HW,2013-03-03 02:47:00,
2013-03-02 18:52:00,50.2,31.9,30.07,West,270,4.5,4.5,49,0.01,,,0.01,WUHU216HW,2013-03-03 02:52:00,
2013-03-02 18:57:00,50.2,26.8,30.07,NW,315,5.1,5.1,40,0.01,,,0.01,WUHU216HW,2013-03-03 02:57:00,
2013-03-02 19:02:00,50.0,29.4,30.08,WNW,282,3.3,5.1,45,0.01,,,0.01,WUHU216HW,2013-03-03 03:02:00,
2013-03-02 19:07:00,49.9,29.8,30.08,West,259,2.1,4.9,46,0.01,,,0.01,WUHU216HW,2013-03-03 03:07:00,
2013-03-02 19:12:00,49.7,30.8,30.08,WSW,251,3.0,4.7,48,0.01,,,0.01,WUHU216HW,2013-03-03 03:12:00,
2013-03-02 19:17:00,49.5,28.9,30.08,West,264,3.1,6.0,45,0.01,,,0.01,WUHU216HW,2013-03-03 03:17:00,
2013-03-02 19:22:00,49.3,29.4,30.08,WSW,249,2.4,6.0,46,0.01,,,0.01,WUHU216HW,2013-03-03 03:22:00,
2013-03-02 19:27:00,49.1,30.3,30.08,West,270,3.4,4.7,48,0.00,,,0.01,WUHU216HW,2013-03-03 03:27:00,
2013-03-02 19:32:00,48.8,31.0,30.08,West,272,3.0,4.7,50,0.00,,,0.01,WUHU216HW,2013-03-03 03:32:00,
2013-03-02 19:37:00,48.6,33.6,30.08,WSW,257,6.6,8.3,56,0.00,,,0.01,WUHU216HW,2013-03-03 03:37:00,
2013-03-02 19:43:00,48.4,34.3,30.08,WNW,303,2.6,8.3,58,0.00,,,0.01,WUHU216HW,2013-03-03 03:43:00,
2013-03-02 19:48:00,48.2,34.2,30.08,West,276,3.5,5.8,58,0.00,,,0.01,WUHU216HW,2013-03-03 03:48:00,
2013-03-02 19:53:00,48.1,34.9,30.08,West,270,3.2,6.5,60,0.00,,,0.01,WUHU216HW,2013-03-03 03:53:00,
2013-03-02 19:58:00,47.9,34.3,30.08,NNW,338,4.0,6.5,59,0.00,,,0.01,WUHU216HW,2013-03-03 03:58:00,
2013-03-02 20:03:00,47.9,33.9,30.09,NNW,338,3.1,6.3,58,0.00,,,0.01,WUHU216HW,2013-03-03 04:03:00,
2013-03-02 20:08:00,47.5,33.0,30.08,West,279,4.5,7.6,57,0.00,,,0.01,WUHU216HW,2013-03-03 04:08:00,
2013-03-02 20:13:00,47.2,33.1,30.08,WSW,248,6.9,7.6,58,0.00,,,0.01,WUHU216HW,2013-03-03 04:13:00,
2013-03-02 20:18:00,47.2,33.1,30.09,WSW,248,8.1,8.1,58,0.00,,,0.01,WUHU216HW,2013-03-03 04:18:00,
2013-03-02 20:23:00,47.0,32.5,30.09,WSW,252,5.6,11.0,57,0.00,,,0.01,WUHU216HW,2013-03-03 04:23:00,
2013-03-02 20:28:00,46.8,31.0,30.08,West,269,3.7,11.0,54,0.00,,,0.01,WUHU216HW,2013-03-03 04:28:00,
2013-03-02 20:34:00,46.8,31.4,30.09,NW,324,3.2,7.6,55,0.00,,,0.01,WUHU216HW,2013-03-03 04:34:00,
2013-03-02 20:39:00,46.6,32.1,30.09,WNW,300,3.1,5.1,57,0.00,,,0.01,WUHU216HW,2013-03-03 04:39:00,
2013-03-02 20:44:00,46.4,32.9,30.09,West,260,4.9,8.1,59,0.00,,,0.01,WUHU216HW,2013-03-03 04:44:00,
2013-03-02 20:49:00,46.4,32.9,30.09,West,275,3.2,8.1,59,0.00,,,0.01,WUHU216HW,2013-03-03 04:49:00,
2013-03-02 20:54:00,46.3,33.1,30.10,West,275,4.0,7.8,60,0.00,,,0.01,WUHU216HW,2013-03-03 04:54:00,
2013-03-02 20:59:00,46.3,33.6,30.10,NW,315,5.8,8.9,61,0.00,,,0.01,WUHU216HW,2013-03-03 04:59:00,
2013-03-02 21:00:00,46.3,33.6,30.10,West,262,5.1,8.9,61,0.00,,,0.01,WUHU216HW,2013-03-03 05:00:00,
2013-03-02 21:01:00,46.3,33.1,30.10,WNW,289,3.3,8.9,60,0.00,,,0.01,WUHU216HW,2013-03-03 05:01:00,
2013-03-02 21:06:00,46.3,33.9,30.10,North,0,4.3,8.9,62,0.00,,,0.01,WUHU216HW,2013-03-03 05:06:00,
2013-03-02 21:11:00,46.3,34.3,30.10,NW,315,6.0,7.6,63,0.00,,,0.01,WUHU216HW,2013-03-03 05:11:00,
2013-03-02 21:16:00,46.3,34.8,30.11,West,270,3.4,6.3,64,0.00,,,0.01,WUHU216HW,2013-03-03 05:16:00,
2013-03-02 21:21:00,46.1,34.6,30.11,NNW,338,1.1,6.0,64,0.00,,,0.01,WUHU216HW,2013-03-03 05:21:00,
2013-03-02 21:26:00,46.1,34.9,30.11,WNW,288,3.2,6.7,65,0.00,,,0.01,WUHU216HW,2013-03-03 05:26:00,
2013-03-02 21:31:00,46.1,35.7,30.12,WNW,293,3.4,6.7,67,0.00,,,0.01,WUHU216HW,2013-03-03 05:31:00,
2013-03-02 21:36:00,45.7,35.0,30.12,WSW,248,3.4,4.0,66,0.00,,,0.01,WUHU216HW,2013-03-03 05:36:00,
2013-03-02 21:41:00,45.7,35.7,30.12,West,270,4.0,7.6,68,0.00,,,0.01,WUHU216HW,2013-03-03 05:41:00,
2013-03-02 21:46:00,45.7,35.4,30.12,WNW,293,3.8,7.6,67,0.00,,,0.01,WUHU216HW,2013-03-03 05:46:00,
2013-03-02 21:51:00,45.5,35.6,30.12,West,266,4.1,5.4,68,0.00,,,0.01,WUHU216HW,2013-03-03 05:51:00,
2013-03-02 21:56:00,45.4,35.0,30.12,WSW,248,5.1,5.6,67,0.00,,,0.01,WUHU216HW,2013-03-03 05:56:00,
2013-03-02 22:01:00,45.2,35.2,30.12,West,270,4.0,5.8,68,0.00,,,0.01,WUHU216HW,2013-03-03 06:01:00,
2013-03-02 22:07:00,45.2,35.7,30.12,West,276,3.9,8.1,69,0.00,,,0.01,WUHU216HW,2013-03-03 06:07:00,
2013-03-02 22:12:00,45.2,35.7,30.12,West,270,4.0,8.1,69,0.00,,,0.01,WUHU216HW,2013-03-03 06:12:00,
2013-03-02 22:17:00,45.0,35.8,30.12,West,276,3.1,5.8,70,0.00,,,0.01,WUHU216HW,2013-03-03 06:17:00,
2013-03-02 22:22:00,45.0,36.2,30.12,West,273,2.7,5.4,71,0.00,,,0.01,WUHU216HW,2013-03-03 06:22:00,
2013-03-02 22:27:00,45.0,35.8,30.12,West,270,3.1,5.4,70,0.00,,,0.01,WUHU216HW,2013-03-03 06:27:00,
2013-03-02 22:32:00,44.8,35.6,30.12,WSW,248,4.0,6.3,70,0.00,,,0.01,WUHU216HW,2013-03-03 06:32:00,
2013-03-02 22:37:00,44.8,35.6,30.12,NW,313,1.8,6.3,70,0.00,,,0.01,WUHU216HW,2013-03-03 06:37:00,
2013-03-02 22:42:00,44.8,35.3,30.12,NW,307,1.8,4.5,69,0.00,,,0.01,WUHU216HW,2013-03-03 06:42:00,
2013-03-02 22:47:00,44.8,35.6,30.12,West,280,4.1,4.9,70,0.00,,,0.01,WUHU216HW,2013-03-03 06:47:00,
2013-03-02 22:52:00,44.8,35.3,30.13,WNW,291,1.7,7.4,69,0.00,,,0.01,WUHU216HW,2013-03-03 06:52:00,
2013-03-02 22:57:00,44.6,35.5,30.13,NNW,328,3.6,7.4,70,0.00,,,0.01,WUHU216HW,2013-03-03 06:57:00,
2013-03-02 23:02:00,44.6,34.8,30.12,NNE,23,1.1,5.6,68,0.00,,,0.01,WUHU216HW,2013-03-03 07:02:00,
2013-03-02 23:07:00,44.5,34.6,30.12,WNW,293,3.4,3.4,68,0.00,,,0.01,WUHU216HW,2013-03-03 07:07:00,
2013-03-02 23:12:00,44.3,34.7,30.12,NW,307,3.0,4.0,69,0.00,,,0.01,WUHU216HW,2013-03-03 07:12:00,
2013-03-02 23:17:00,43.9,34.5,30.12,NW,305,2.0,4.0,69,0.00,,,0.01,WUHU216HW,2013-03-03 07:17:00,
2013-03-02 23:22:00,43.6,34.1,30.13,WNW,299,1.1,3.4,69,0.00,,,0.01,WUHU216HW,2013-03-03 07:22:00,
2013-03-02 23:28:00,43.6,33.8,30.12,North,0,2.5,2.7,68,0.00,,,0.01,WUHU216HW,2013-03-03 07:28:00,
2013-03-02 23:33:00,43.2,33.8,30.12,NW,312,1.6,5.6,69,0.00,,,0.01,WUHU216HW,2013-03-03 07:33:00,
2013-03-02 23:38:00,43.0,33.2,30.12,WNW,298,1.3,5.6,68,0.00,,,0.01,WUHU216HW,2013-03-03 07:38:00,
2013-03-02 23:43:00,42.8,33.0,30.12,WSW,251,1.1,4.5,68,0.00,,,0.01,WUHU216HW,2013-03-03 07:43:00,
2013-03-02 23:48:00,42.8,33.0,30.13,WNW,291,1.2,3.6,68,0.00,,,0.01,WUHU216HW,2013-03-03 07:48:00,
2013-03-02 23:53:00,42.7,32.9,30.13,West,276,1.3,3.4,68,0.00,,,0.01,WUHU216HW,2013-03-03 07:53:00,
2013-03-02 23:58:00,42.5,32.3,30.13,West,271,1.1,3.8,67,0.00,,,0.01,WUHU216HW,2013-03-03 07:58:00,